Time;durP1;ratioP1;P1;durP2;ratioP2;P2;SDS_P1;SDS_P2;PMS_P1;PMS_P2;Temp;Humidity;BMP_temperature;BMP_pressure;BME280_temperature;BME280_humidity;BME280_pressure;Samples;Min_cycle;Max_cycle;Signal;HPM_P1;HPM_P2
2022/12/01 00:01:18;;;;;;;22.65;14.23;;;;;;;;;;4862644;29;20025;-87
2022/12/01 00:03:44;;;;;;;19.77;12.40;;;;;;;;;;4862994;29;20033;-86
2022/12/01 00:06:19;;;;;;;24.50;14.95;;;;;;;;;;4862475;29;20025;-90
2022/12/01 00:11:31;;;;;;;24.25;15.50;;;;;;;;;;4879823;29;20049;-87
2022/12/01 00:13:57;;;;;;;22.02;13.68;;;;;;;;;;4878967;29;20041;-86
2022/12/01 00:16:23;;;;;;;23.77;15.05;;;;;;;;;;4878959;29;20029;-86
2022/12/01 00:18:50;;;;;;;25.63;15.38;;;;;;;;;;4862402;29;20036;-88
2022/12/01 00:21:18;;;;;;;22.30;13.40;;;;;;;;;;4879142;29;20471;-87
2022/12/01 00:23:48;;;;;;;21.95;13.07;;;;;;;;;;4862945;29;20037;-89
2022/12/01 00:26:14;;;;;;;21.30;13.45;;;;;;;;;;4862988;29;20049;-86
2022/12/01 00:28:41;;;;;;;20.35;12.30;;;;;;;;;;4862998;29;20030;-92
2022/12/01 00:31:11;;;;;;;20.38;13.25;;;;;;;;;;4879531;29;20124;-89
2022/12/01 00:33:38;;;;;;;22.60;13.30;;;;;;;;;;4862429;29;20132;-92
2022/12/01 00:36:04;;;;;;;23.42;13.80;;;;;;;;;;4862781;29;20145;-86
2022/12/01 00:38:31;;;;;;;21.67;13.65;;;;;;;;;;4862574;29;20084;-91
2022/12/01 00:40:57;;;;;;;22.80;13.88;;;;;;;;;;4862895;29;20048;-88
2022/12/01 00:43:23;;;;;;;22.20;13.50;;;;;;;;;;4862656;29;20048;-86
2022/12/01 00:45:50;;;;;;;21.23;12.95;;;;;;;;;;4862222;29;20053;-88
2022/12/01 00:48:16;;;;;;;20.27;13.05;;;;;;;;;;4862530;29;20037;-92
2022/12/01 00:50:43;;;;;;;21.38;13.52;;;;;;;;;;4862503;29;20029;-90
2022/12/01 00:53:09;;;;;;;21.92;13.95;;;;;;;;;;4862536;29;20106;-87
2022/12/01 00:55:35;;;;;;;22.35;13.65;;;;;;;;;;4863440;29;20037;-86
2022/12/01 00:58:01;;;;;;;21.63;13.25;;;;;;;;;;4866186;29;20029;-87
2022/12/01 01:00:27;;;;;;;20.60;13.05;;;;;;;;;;4866036;29;20513;-92
2022/12/01 01:02:54;;;;;;;22.52;12.85;;;;;;;;;;4865857;29;20037;-92
2022/12/01 01:05:20;;;;;;;23.77;14.00;;;;;;;;;;4865859;29;20111;-87
2022/12/01 01:07:46;;;;;;;24.33;14.65;;;;;;;;;;4882393;29;20128;-87
2022/12/01 01:10:12;;;;;;;25.10;14.30;;;;;;;;;;4865854;29;20033;-93
2022/12/01 01:12:38;;;;;;;26.40;15.43;;;;;;;;;;4865885;29;20116;-88
2022/12/01 01:15:05;;;;;;;30.45;17.20;;;;;;;;;;4865538;29;20029;-86
2022/12/01 01:17:32;;;;;;;25.42;15.35;;;;;;;;;;4865383;29;20029;-86
2022/12/01 01:19:58;;;;;;;33.83;20.10;;;;;;;;;;4865457;29;20092;-86
2022/12/01 01:22:24;;;;;;;39.83;24.70;;;;;;;;;;4865385;29;20414;-91
2022/12/01 01:24:50;;;;;;;29.90;18.50;;;;;;;;;;4865554;29;20028;-91
2022/12/01 01:27:16;;;;;;;28.83;16.92;;;;;;;;;;4865251;29;20470;-86
2022/12/01 01:29:42;;;;;;;26.05;15.38;;;;;;;;;;4881765;29;20108;-88
2022/12/01 01:32:09;;;;;;;33.55;20.10;;;;;;;;;;4881942;29;20056;-91
2022/12/01 01:34:35;;;;;;;27.92;17.08;;;;;;;;;;4864844;29;20051;-87
2022/12/01 01:37:01;;;;;;;35.28;20.50;;;;;;;;;;4865331;29;20098;-87
2022/12/01 01:39:27;;;;;;;32.35;18.85;;;;;;;;;;4865328;29;20037;-87
2022/12/01 01:41:53;;;;;;;29.40;17.30;;;;;;;;;;4864973;29;20482;-91
2022/12/01 01:44:38;;;;;;;31.27;17.90;;;;;;;;;;4864824;29;20025;-88
2022/12/01 01:47:04;;;;;;;35.58;18.95;;;;;;;;;;4864552;29;20140;-87
2022/12/01 01:49:30;;;;;;;33.30;19.42;;;;;;;;;;4864470;29;20029;-87
2022/12/01 01:51:57;;;;;;;31.23;18.25;;;;;;;;;;4864739;29;20093;-87
2022/12/01 01:54:26;;;;;;;30.70;17.90;;;;;;;;;;4864509;29;20021;-90
2022/12/01 01:56:52;;;;;;;33.13;20.25;;;;;;;;;;4864496;29;20033;-93
2022/12/01 01:59:21;;;;;;;29.25;17.52;;;;;;;;;;4865204;29;20029;-92
2022/12/01 02:01:50;;;;;;;31.60;16.90;;;;;;;;;;4881238;29;20045;-88
2022/12/01 02:04:16;;;;;;;27.10;16.80;;;;;;;;;;4864725;29;20483;-86
2022/12/01 02:06:42;;;;;;;27.40;16.75;;;;;;;;;;4881491;29;20029;-91
2022/12/01 02:09:11;;;;;;;29.60;16.40;;;;;;;;;;4864800;29;20052;-92
2022/12/01 02:11:47;;;;;;;25.13;16.33;;;;;;;;;;4864757;29;20097;-86
2022/12/01 02:14:31;;;;;;;26.45;16.02;;;;;;;;;;4866633;29;20060;-91
2022/12/01 02:17:01;;;;;;;27.52;15.73;;;;;;;;;;4868989;29;20482;-86
2022/12/01 02:19:43;;;;;;;30.77;16.42;;;;;;;;;;4864931;29;20053;-89
2022/12/01 02:22:18;;;;;;;27.88;15.35;;;;;;;;;;4864114;29;20456;-85
2022/12/01 02:25:03;;;;;;;24.38;15.15;;;;;;;;;;4864285;29;20123;-87
2022/12/01 02:27:32;;;;;;;28.17;16.50;;;;;;;;;;4864684;29;20037;-92
2022/12/01 02:30:13;;;;;;;31.63;16.70;;;;;;;;;;4864668;29;20029;-90
2022/12/01 02:32:44;;;;;;;29.15;15.68;;;;;;;;;;4880559;29;20041;-85
2022/12/01 02:35:29;;;;;;;27.25;16.00;;;;;;;;;;4864216;29;20068;-91
2022/12/01 02:38:03;;;;;;;31.17;17.50;;;;;;;;;;4863829;29;20060;-90
2022/12/01 02:40:36;;;;;;;28.70;17.00;;;;;;;;;;4880872;29;20096;-84
2022/12/01 02:43:03;;;;;;;31.85;17.35;;;;;;;;;;4864334;29;20067;-91
2022/12/01 02:45:33;;;;;;;31.70;17.77;;;;;;;;;;4863554;29;20049;-82
2022/12/01 02:48:00;;;;;;;28.95;17.50;;;;;;;;;;4863472;29;20561;-91
2022/12/01 02:50:27;;;;;;;27.52;16.63;;;;;;;;;;4863696;29;20107;-89
2022/12/01 02:52:54;;;;;;;32.33;17.85;;;;;;;;;;4863776;29;20029;-91
2022/12/01 02:55:20;;;;;;;35.35;18.73;;;;;;;;;;4863894;29;20037;-91
2022/12/01 02:57:46;;;;;;;49.13;28.27;;;;;;;;;;4864056;29;20061;-92
2022/12/01 03:00:13;;;;;;;53.53;30.13;;;;;;;;;;4864067;29;20085;-86
2022/12/01 03:02:48;;;;;;;51.45;30.55;;;;;;;;;;4863466;29;20044;-86
2022/12/01 03:05:17;;;;;;;43.38;22.75;;;;;;;;;;4863266;29;20054;-85
2022/12/01 03:07:50;;;;;;;38.53;21.38;;;;;;;;;;4863779;29;20061;-86
2022/12/01 03:10:19;;;;;;;38.25;22.58;;;;;;;;;;4863264;29;20061;-87
2022/12/01 03:13:01;;;;;;;36.63;21.10;;;;;;;;;;4880211;29;20029;-84
2022/12/01 03:15:30;;;;;;;34.75;20.50;;;;;;;;;;4880404;29;20029;-84
2022/12/01 03:17:56;;;;;;;39.72;22.23;;;;;;;;;;4863263;29;20029;-89
2022/12/01 03:20:32;;;;;;;37.05;21.58;;;;;;;;;;4862991;29;20119;-91
2022/12/01 03:23:01;;;;;;;39.10;21.15;;;;;;;;;;4863589;29;20045;-90
2022/12/01 03:25:27;;;;;;;36.97;21.88;;;;;;;;;;4863101;29;20043;-89
2022/12/01 03:27:55;;;;;;;38.17;21.50;;;;;;;;;;4863977;29;20064;-85
2022/12/01 03:30:25;;;;;;;35.08;20.52;;;;;;;;;;4863347;29;20076;-86
2022/12/01 03:32:54;;;;;;;35.05;20.70;;;;;;;;;;4863083;29;20036;-85
2022/12/01 03:35:26;;;;;;;36.20;20.98;;;;;;;;;;4863329;29;20021;-85
2022/12/01 03:38:27;;;;;;;37.30;21.63;;;;;;;;;;4864802;29;20428;-86
2022/12/01 03:40:56;;;;;;;34.92;19.65;;;;;;;;;;4808480;29;20054;-92
2022/12/01 03:43:25;;;;;;;38.08;20.92;;;;;;;;;;4853494;29;20144;-91
2022/12/01 03:45:58;;;;;;;36.08;20.05;;;;;;;;;;4863409;29;20068;-86
2022/12/01 03:48:25;;;;;;;35.73;20.97;;;;;;;;;;4863296;29;20071;-86
2022/12/01 03:51:05;;;;;;;33.95;20.05;;;;;;;;;;4863290;29;20876;-86
2022/12/01 03:53:47;;;;;;;35.70;20.17;;;;;;;;;;4863440;29;20025;-91
2022/12/01 03:56:15;;;;;;;37.15;20.48;;;;;;;;;;4863144;29;20029;-88
2022/12/01 03:58:43;;;;;;;34.08;19.50;;;;;;;;;;4863034;29;20509;-84
2022/12/01 04:01:11;;;;;;;32.78;19.75;;;;;;;;;;4862936;29;20025;-87
2022/12/01 04:03:37;;;;;;;34.95;19.00;;;;;;;;;;4862647;29;20574;-86
2022/12/01 04:06:04;;;;;;;32.80;18.75;;;;;;;;;;4862619;29;20107;-87
2022/12/01 04:08:32;;;;;;;35.00;18.92;;;;;;;;;;4862599;29;20434;-92
2022/12/01 04:10:59;;;;;;;29.83;17.38;;;;;;;;;;4862700;29;20057;-85
2022/12/01 04:13:25;;;;;;;28.63;16.15;;;;;;;;;;4879076;29;20029;-87
2022/12/01 04:15:54;;;;;;;27.23;15.63;;;;;;;;;;4862576;29;20037;-86
2022/12/01 04:18:21;;;;;;;27.65;15.30;;;;;;;;;;4862298;29;20796;-86
2022/12/01 04:20:48;;;;;;;26.98;15.95;;;;;;;;;;4862784;29;20116;-85
2022/12/01 04:23:58;;;;;;;27.08;16.38;;;;;;;;;;4862537;29;20044;-91
2022/12/01 04:26:01;;;;;;;28.27;16.25;;;;;;;;;;4879829;29;20029;-92
2022/12/01 04:28:27;;;;;;;29.67;16.42;;;;;;;;;;4863214;29;20504;-87
2022/12/01 04:30:54;;;;;;;30.52;15.70;;;;;;;;;;4864600;29;20056;-92
2022/12/01 04:33:20;;;;;;;24.27;14.85;;;;;;;;;;4866884;29;20036;-92
2022/12/01 04:35:55;;;;;;;24.27;15.07;;;;;;;;;;4866564;29;20021;-90
2022/12/01 04:38:21;;;;;;;29.35;15.93;;;;;;;;;;4866617;29;20041;-91
2022/12/01 04:40:47;;;;;;;29.33;15.18;;;;;;;;;;4866417;29;20521;-89
2022/12/01 04:43:13;;;;;;;30.02;16.23;;;;;;;;;;4865930;29;20040;-85
2022/12/01 04:45:39;;;;;;;34.83;17.15;;;;;;;;;;4865806;29;20037;-87
2022/12/01 04:48:06;;;;;;;38.65;21.23;;;;;;;;;;4865609;29;20037;-85
2022/12/01 04:50:32;;;;;;;30.75;17.27;;;;;;;;;;4866295;29;20398;-86
2022/12/01 04:52:58;;;;;;;36.30;18.98;;;;;;;;;;4865678;29;20029;-86
2022/12/01 04:55:24;;;;;;;31.60;17.55;;;;;;;;;;4865665;29;20044;-85
2022/12/01 04:57:51;;;;;;;30.70;17.55;;;;;;;;;;4865577;29;20025;-84
2022/12/01 05:00:17;;;;;;;30.13;17.27;;;;;;;;;;4865532;29;20269;-87
2022/12/01 05:02:43;;;;;;;33.72;17.90;;;;;;;;;;4865070;29;20040;-91
2022/12/01 05:05:10;;;;;;;33.33;17.90;;;;;;;;;;4865916;29;20033;-87
2022/12/01 05:07:36;;;;;;;35.17;18.45;;;;;;;;;;4865651;29;20032;-92
2022/12/01 05:10:02;;;;;;;30.48;17.83;;;;;;;;;;4865904;29;20033;-91
2022/12/01 05:12:28;;;;;;;31.45;18.08;;;;;;;;;;4879469;29;20033;-90
2022/12/01 05:14:54;;;;;;;29.77;17.23;;;;;;;;;;4882355;29;20037;-90
2022/12/01 05:17:21;;;;;;;34.25;18.38;;;;;;;;;;4882257;29;20041;-90
2022/12/01 05:22:33;;;;;;;37.13;20.02;;;;;;;;;;4882281;29;20060;-91
2022/12/01 05:25:02;;;;;;;33.20;19.17;;;;;;;;;;4883312;29;20522;-89
2022/12/01 05:27:28;;;;;;;38.65;20.38;;;;;;;;;;4887002;29;20039;-89
2022/12/01 05:29:54;;;;;;;44.90;22.67;;;;;;;;;;4884428;29;20025;-91
2022/12/01 05:32:20;;;;;;;38.92;21.48;;;;;;;;;;4881801;29;20025;-90
2022/12/01 05:34:46;;;;;;;38.67;21.67;;;;;;;;;;4881665;29;20033;-91
2022/12/01 05:37:13;;;;;;;35.78;19.38;;;;;;;;;;4881743;29;20033;-89
2022/12/01 05:39:39;;;;;;;34.50;18.63;;;;;;;;;;4881626;29;20032;-90
2022/12/01 05:42:05;;;;;;;36.45;20.58;;;;;;;;;;4881107;29;20541;-91
2022/12/01 05:44:31;;;;;;;35.67;19.95;;;;;;;;;;4881355;29;20028;-90
2022/12/01 05:46:57;;;;;;;43.28;23.77;;;;;;;;;;4881383;29;20057;-91
2022/12/01 05:49:23;;;;;;;46.10;23.02;;;;;;;;;;4881693;29;20479;-89
2022/12/01 05:51:49;;;;;;;39.17;21.42;;;;;;;;;;4881842;29;20040;-90
2022/12/01 05:54:15;;;;;;;37.85;19.92;;;;;;;;;;4881237;29;20021;-90
2022/12/01 05:56:42;;;;;;;39.60;20.55;;;;;;;;;;4881565;29;20036;-90
2022/12/01 05:59:08;;;;;;;41.03;19.90;;;;;;;;;;4881244;29;20077;-91
2022/12/01 06:01:34;;;;;;;34.38;18.85;;;;;;;;;;4881046;29;20132;-90
2022/12/01 06:04:00;;;;;;;41.17;19.77;;;;;;;;;;4881369;29;20033;-87
2022/12/01 06:06:26;;;;;;;38.20;19.05;;;;;;;;;;4881203;29;20475;-91
2022/12/01 06:08:53;;;;;;;35.90;19.75;;;;;;;;;;4881333;29;20033;-90
2022/12/01 06:11:19;;;;;;;34.50;18.98;;;;;;;;;;4882298;29;20025;-91
2022/12/01 06:13:45;;;;;;;38.38;19.05;;;;;;;;;;4880951;29;20502;-88
2022/12/01 06:16:11;;;;;;;38.08;19.08;;;;;;;;;;4881026;29;20036;-90
2022/12/01 06:18:41;;;;;;;33.78;18.63;;;;;;;;;;4881786;29;20068;-90
2022/12/01 06:21:07;;;;;;;40.10;20.20;;;;;;;;;;4880803;29;20120;-91
2022/12/01 06:23:33;;;;;;;42.28;20.20;;;;;;;;;;4880775;29;20037;-91
2022/12/01 06:25:59;;;;;;;31.83;18.42;;;;;;;;;;4880544;29;20021;-91
2022/12/01 06:28:49;;;;;;;32.72;18.55;;;;;;;;;;4880552;29;20040;-91
2022/12/01 06:31:16;;;;;;;37.70;20.27;;;;;;;;;;4880719;29;20049;-90
2022/12/01 06:33:42;;;;;;;55.13;22.27;;;;;;;;;;4880779;29;20025;-89
2022/12/01 06:36:09;;;;;;;48.00;22.73;;;;;;;;;;4880477;29;20471;-88
2022/12/01 06:38:36;;;;;;;43.88;20.50;;;;;;;;;;4880502;29;20089;-88
2022/12/01 06:41:03;;;;;;;41.35;21.85;;;;;;;;;;4880547;29;20123;-88
2022/12/01 06:43:29;;;;;;;37.10;19.70;;;;;;;;;;4880366;29;20479;-89
2022/12/01 06:45:55;;;;;;;43.80;21.60;;;;;;;;;;4880202;29;20037;-88
2022/12/01 06:48:21;;;;;;;42.15;20.45;;;;;;;;;;4881342;29;20029;-89
2022/12/01 06:50:48;;;;;;;41.28;20.48;;;;;;;;;;4881661;29;20156;-88
2022/12/01 06:53:14;;;;;;;41.35;21.95;;;;;;;;;;4880470;29;20037;-88
2022/12/01 06:55:40;;;;;;;43.03;20.92;;;;;;;;;;4880226;29;20025;-89
2022/12/01 06:58:07;;;;;;;38.42;20.27;;;;;;;;;;4880103;29;20036;-88
2022/12/01 07:00:33;;;;;;;36.72;19.67;;;;;;;;;;4881320;29;20021;-89
2022/12/01 07:02:59;;;;;;;35.30;17.98;;;;;;;;;;4880042;29;20087;-90
2022/12/01 07:05:25;;;;;;;32.55;18.20;;;;;;;;;;4879970;29;20032;-88
2022/12/01 07:07:51;;;;;;;32.63;18.88;;;;;;;;;;4879944;29;20037;-89
2022/12/01 07:10:18;;;;;;;33.08;19.73;;;;;;;;;;4880020;29;20029;-90
2022/12/01 07:12:44;;;;;;;40.30;21.77;;;;;;;;;;4880162;29;20486;-91
2022/12/01 07:15:10;;;;;;;52.47;22.90;;;;;;;;;;4880333;29;20032;-93
2022/12/01 07:17:36;;;;;;;40.45;21.98;;;;;;;;;;4879831;29;20375;-89
2022/12/01 07:20:03;;;;;;;41.78;21.50;;;;;;;;;;4881375;29;20427;-89
2022/12/01 07:22:29;;;;;;;42.38;21.80;;;;;;;;;;4879852;29;20134;-94
2022/12/01 07:24:55;;;;;;;38.63;20.75;;;;;;;;;;4879845;29;20072;-91
2022/12/01 07:27:24;;;;;;;36.90;21.67;;;;;;;;;;4882259;29;20045;-94
2022/12/01 07:29:51;;;;;;;30.25;20.33;;;;;;;;;;4880172;29;20029;-90
2022/12/01 07:32:17;;;;;;;28.17;19.48;;;;;;;;;;4867464;29;20547;-91
2022/12/01 07:34:43;;;;;;;27.25;20.23;;;;;;;;;;4866392;29;20149;-91
2022/12/01 07:37:09;;;;;;;28.20;19.92;;;;;;;;;;4865809;29;20032;-90
2022/12/01 07:39:35;;;;;;;30.98;21.17;;;;;;;;;;4882940;29;20029;-95
2022/12/01 07:42:02;;;;;;;25.98;20.25;;;;;;;;;;4867605;29;20051;-93
2022/12/01 07:44:28;;;;;;;24.85;19.17;;;;;;;;;;4864541;29;20059;-93
2022/12/01 07:46:54;;;;;;;29.00;21.10;;;;;;;;;;4864066;29;20057;-91
2022/12/01 07:49:20;;;;;;;28.85;21.45;;;;;;;;;;4864214;29;20033;-93
2022/12/01 07:51:47;;;;;;;40.25;27.38;;;;;;;;;;4864357;29;20072;-92
2022/12/01 07:54:13;;;;;;;34.65;25.85;;;;;;;;;;4865118;29;20053;-91
2022/12/01 07:56:40;;;;;;;32.70;26.20;;;;;;;;;;4864984;29;20455;-93
2022/12/01 07:59:06;;;;;;;34.53;25.05;;;;;;;;;;4863950;29;20025;-92
2022/12/01 08:01:32;;;;;;;35.17;24.73;;;;;;;;;;4866615;29;20080;-92
2022/12/01 08:03:59;;;;;;;38.95;25.83;;;;;;;;;;4864186;29;20040;-90
2022/12/01 08:06:26;;;;;;;32.72;22.83;;;;;;;;;;4879344;29;20127;-91
2022/12/01 08:08:52;;;;;;;31.85;22.27;;;;;;;;;;4879797;29;20029;-92
2022/12/01 08:11:20;;;;;;;34.95;22.30;;;;;;;;;;4879220;29;20048;-91
2022/12/01 08:13:46;;;;;;;30.35;21.13;;;;;;;;;;4879367;29;20067;-90
2022/12/01 08:16:14;;;;;;;26.23;20.52;;;;;;;;;;4880581;29;20028;-93
2022/12/01 08:18:42;;;;;;;27.70;21.33;;;;;;;;;;4879443;29;20419;-91
2022/12/01 08:21:10;;;;;;;30.40;22.40;;;;;;;;;;4879138;29;20101;-91
2022/12/01 08:23:36;;;;;;;30.08;21.27;;;;;;;;;;4879595;29;20466;-93
2022/12/01 08:26:05;;;;;;;29.85;21.65;;;;;;;;;;4879755;29;20496;-93
2022/12/01 08:28:32;;;;;;;27.70;21.13;;;;;;;;;;4879466;29;20077;-92
2022/12/01 08:30:58;;;;;;;28.25;21.67;;;;;;;;;;4880643;29;20120;-89
2022/12/01 08:33:24;;;;;;;30.52;22.15;;;;;;;;;;4867383;29;20068;-89
2022/12/01 08:35:50;;;;;;;30.98;23.27;;;;;;;;;;4879104;29;20081;-91
2022/12/01 08:38:16;;;;;;;30.27;22.50;;;;;;;;;;4879246;29;20501;-91
2022/12/01 08:40:43;;;;;;;28.95;23.23;;;;;;;;;;4879433;29;20029;-92
2022/12/01 08:43:09;;;;;;;29.00;22.48;;;;;;;;;;4880397;29;20083;-90
2022/12/01 08:45:35;;;;;;;28.70;22.75;;;;;;;;;;4881016;29;20098;-90
2022/12/01 08:48:01;;;;;;;27.35;21.42;;;;;;;;;;4882740;29;20401;-91
2022/12/01 08:50:28;;;;;;;28.30;21.08;;;;;;;;;;4883457;29;20033;-90
2022/12/01 08:52:54;;;;;;;31.70;23.17;;;;;;;;;;4884260;29;20048;-91
2022/12/01 08:55:21;;;;;;;28.70;21.48;;;;;;;;;;4882981;29;20024;-92
2022/12/01 08:57:47;;;;;;;33.92;24.02;;;;;;;;;;4882365;29;20025;-91
2022/12/01 09:00:13;;;;;;;31.33;22.92;;;;;;;;;;4883193;29;20035;-91
2022/12/01 09:02:40;;;;;;;31.60;22.92;;;;;;;;;;4888391;29;20029;-90
2022/12/01 09:05:06;;;;;;;32.88;24.20;;;;;;;;;;4884308;29;20033;-91
2022/12/01 09:07:32;;;;;;;32.03;24.77;;;;;;;;;;4882322;29;20028;-91
2022/12/01 09:09:58;;;;;;;35.55;25.70;;;;;;;;;;4882371;29;20041;-92
2022/12/01 09:12:25;;;;;;;36.45;26.48;;;;;;;;;;4867087;29;20045;-91
2022/12/01 09:14:51;;;;;;;33.85;25.85;;;;;;;;;;4882233;29;20099;-90
2022/12/01 09:17:18;;;;;;;35.13;25.83;;;;;;;;;;4882899;29;20083;-92
2022/12/01 09:19:44;;;;;;;35.83;25.95;;;;;;;;;;4885662;29;20044;-91
2022/12/01 09:22:11;;;;;;;36.67;25.48;;;;;;;;;;4885554;29;20032;-93
2022/12/01 09:24:37;;;;;;;39.58;25.73;;;;;;;;;;4885863;29;20111;-92
2022/12/01 09:27:04;;;;;;;36.22;24.73;;;;;;;;;;4885920;29;20431;-92
2022/12/01 09:29:30;;;;;;;39.08;25.67;;;;;;;;;;4886120;29;20029;-92
2022/12/01 09:31:57;;;;;;;36.50;27.65;;;;;;;;;;4887648;29;20537;-92
2022/12/01 09:34:23;;;;;;;37.58;26.55;;;;;;;;;;4896555;29;20080;-90
2022/12/01 09:36:50;;;;;;;32.90;25.17;;;;;;;;;;4894616;29;20035;-96
2022/12/01 09:39:17;;;;;;;32.95;25.10;;;;;;;;;;4886355;29;20032;-93
2022/12/01 09:41:52;;;;;;;29.48;23.08;;;;;;;;;;4885402;29;20033;-92
2022/12/01 09:44:36;;;;;;;35.22;26.00;;;;;;;;;;4885202;29;20025;-93
2022/12/01 09:47:08;;;;;;;31.20;23.58;;;;;;;;;;4884932;29;20057;-94
2022/12/01 09:49:54;;;;;;;31.10;23.15;;;;;;;;;;4884888;29;20032;-93
2022/12/01 09:52:21;;;;;;;30.40;23.30;;;;;;;;;;4884768;29;20044;-93
2022/12/01 09:54:47;;;;;;;30.83;22.05;;;;;;;;;;4884499;29;20028;-92
2022/12/01 09:57:15;;;;;;;29.05;22.85;;;;;;;;;;4884594;29;20489;-93
2022/12/01 09:59:42;;;;;;;28.75;21.90;;;;;;;;;;4884976;29;20033;-92
2022/12/01 10:02:23;;;;;;;27.13;20.73;;;;;;;;;;4885104;29;20039;-92
2022/12/01 10:04:50;;;;;;;28.02;22.42;;;;;;;;;;4879183;29;20056;-91
2022/12/01 10:07:23;;;;;;;26.38;20.20;;;;;;;;;;4866123;29;20029;-92
2022/12/01 10:09:57;;;;;;;27.85;21.50;;;;;;;;;;4866006;29;20056;-92
2022/12/01 10:12:26;;;;;;;27.30;21.73;;;;;;;;;;4866074;29;20041;-92
2022/12/01 10:14:55;;;;;;;29.65;22.55;;;;;;;;;;4865766;29;20045;-92
2022/12/01 10:17:24;;;;;;;28.17;22.50;;;;;;;;;;4865987;29;20036;-93
2022/12/01 10:20:14;;;;;;;29.95;22.20;;;;;;;;;;4865676;29;20025;-89
2022/12/01 10:22:57;;;;;;;39.50;22.10;;;;;;;;;;4861015;29;20044;-93
2022/12/01 10:25:27;;;;;;;29.08;22.63;;;;;;;;;;4882594;29;20383;-92
2022/12/01 10:28:06;;;;;;;31.38;22.52;;;;;;;;;;4865671;29;20041;-93
2022/12/01 10:30:38;;;;;;;28.63;22.02;;;;;;;;;;4865604;29;20033;-92
2022/12/01 10:33:17;;;;;;;28.83;22.00;;;;;;;;;;4865317;29;20037;-92
2022/12/01 10:35:43;;;;;;;26.23;20.98;;;;;;;;;;4865438;29;20368;-92
2022/12/01 10:38:14;;;;;;;27.38;21.48;;;;;;;;;;4865684;29;20033;-92
2022/12/01 10:40:41;;;;;;;28.50;21.38;;;;;;;;;;4865352;29;20025;-91
2022/12/01 10:43:09;;;;;;;28.23;20.77;;;;;;;;;;4865504;29;20041;-93
2022/12/01 10:45:37;;;;;;;29.15;22.08;;;;;;;;;;4865220;29;20029;-91
2022/12/01 10:48:07;;;;;;;28.40;21.63;;;;;;;;;;4866124;29;20103;-92
2022/12/01 10:50:34;;;;;;;27.33;22.05;;;;;;;;;;4865543;29;20120;-91
2022/12/01 10:53:01;;;;;;;26.30;20.88;;;;;;;;;;4865312;29;20498;-93
2022/12/01 10:55:30;;;;;;;30.48;24.35;;;;;;;;;;4864926;29;20034;-94
2022/12/01 10:58:06;;;;;;;32.17;24.67;;;;;;;;;;4866285;29;20029;-96
2022/12/01 11:00:46;;;;;;;30.50;24.13;;;;;;;;;;4869525;29;20029;-95
2022/12/01 11:03:22;;;;;;;30.10;23.13;;;;;;;;;;4867402;29;20036;-92
2022/12/01 11:05:59;;;;;;;31.20;24.48;;;;;;;;;;4879713;29;20029;-92
2022/12/01 11:08:36;;;;;;;33.22;25.48;;;;;;;;;;4866819;29;20057;-92
2022/12/01 11:11:09;;;;;;;34.13;25.58;;;;;;;;;;4867785;29;20040;-94
2022/12/01 11:13:42;;;;;;;37.40;26.45;;;;;;;;;;4882900;29;20041;-95
2022/12/01 11:16:28;;;;;;;36.05;27.83;;;;;;;;;;4883048;29;20045;-89
2022/12/01 11:19:06;;;;;;;36.55;27.83;;;;;;;;;;4864269;29;20044;-88
2022/12/01 11:21:32;;;;;;;37.50;27.20;;;;;;;;;;4878500;29;20546;-90
2022/12/01 11:23:58;;;;;;;38.78;26.58;;;;;;;;;;4880315;29;20083;-91
2022/12/01 11:26:30;;;;;;;36.95;26.63;;;;;;;;;;4879871;29;20493;-95
2022/12/01 11:28:58;;;;;;;37.10;26.42;;;;;;;;;;4880577;29;20029;-91
2022/12/01 11:31:36;;;;;;;38.13;27.23;;;;;;;;;;4879802;29;20048;-92
2022/12/01 11:34:02;;;;;;;39.80;25.40;;;;;;;;;;4880743;29;20112;-91
2022/12/01 11:36:42;;;;;;;36.00;24.50;;;;;;;;;;4882840;29;20052;-94
2022/12/01 11:39:20;;;;;;;37.85;24.63;;;;;;;;;;4880286;29;20033;-90
2022/12/01 11:41:47;;;;;;;38.67;25.60;;;;;;;;;;4881184;29;20025;-90
2022/12/01 11:44:18;;;;;;;36.85;25.35;;;;;;;;;;4886689;29;20025;-89
2022/12/01 11:46:44;;;;;;;36.13;25.20;;;;;;;;;;4881222;29;20057;-91
2022/12/01 11:49:18;;;;;;;35.22;25.90;;;;;;;;;;4879482;29;20467;-91
2022/12/01 11:51:45;;;;;;;35.40;24.13;;;;;;;;;;4879285;29;20036;-91
2022/12/01 11:54:17;;;;;;;40.13;26.17;;;;;;;;;;4880726;29;20033;-92
2022/12/01 11:56:44;;;;;;;37.20;26.08;;;;;;;;;;4880203;29;20533;-91
2022/12/01 11:59:10;;;;;;;38.67;24.70;;;;;;;;;;4879617;29;20060;-91
2022/12/01 12:01:36;;;;;;;56.35;26.27;;;;;;;;;;4879650;29;20051;-91
2022/12/01 12:04:14;;;;;;;33.03;22.77;;;;;;;;;;4879729;29;20113;-91
2022/12/01 12:06:49;;;;;;;35.30;24.08;;;;;;;;;;4879670;29;20033;-90
2022/12/01 12:09:34;;;;;;;41.35;25.83;;;;;;;;;;4879357;29;20426;-92
2022/12/01 12:12:09;;;;;;;36.80;25.27;;;;;;;;;;4879175;29;20076;-93
2022/12/01 12:15:05;;;;;;;37.17;25.08;;;;;;;;;;4879729;29;20033;-92
2022/12/01 12:17:37;;;;;;;37.25;24.48;;;;;;;;;;4868603;29;20550;-90
2022/12/01 12:20:06;;;;;;;38.35;25.63;;;;;;;;;;4879680;29;20025;-91
2022/12/01 12:22:35;;;;;;;34.95;24.58;;;;;;;;;;4879589;29;20084;-92
2022/12/01 12:25:05;;;;;;;38.38;24.85;;;;;;;;;;4879272;29;20546;-91
2022/12/01 12:27:46;;;;;;;37.03;24.48;;;;;;;;;;4879561;29;20037;-90
2022/12/01 12:30:16;;;;;;;40.35;24.65;;;;;;;;;;4868184;29;20471;-88
2022/12/01 12:32:42;;;;;;;38.55;24.58;;;;;;;;;;4863543;29;20037;-89
2022/12/01 12:35:18;;;;;;;36.25;24.58;;;;;;;;;;4863334;29;20025;-91
2022/12/01 12:38:04;;;;;;;40.03;26.38;;;;;;;;;;4864085;29;20125;-91
2022/12/01 12:40:49;;;;;;;41.55;26.70;;;;;;;;;;4864318;29;20029;-93
2022/12/01 12:43:15;;;;;;;49.17;27.80;;;;;;;;;;4863751;29;20025;-89
2022/12/01 12:45:59;;;;;;;47.63;29.52;;;;;;;;;;4863304;29;20469;-89
2022/12/01 12:48:34;;;;;;;46.15;27.15;;;;;;;;;;4863484;29;20029;-90
2022/12/01 12:51:04;;;;;;;43.83;27.52;;;;;;;;;;4863286;29;20033;-90
2022/12/01 12:53:33;;;;;;;41.17;26.33;;;;;;;;;;4867235;29;20045;-91
2022/12/01 12:56:01;;;;;;;37.30;24.70;;;;;;;;;;4866891;29;20475;-92
2022/12/01 12:58:51;;;;;;;38.13;24.15;;;;;;;;;;4867014;29;20039;-89
2022/12/01 13:01:20;;;;;;;36.72;24.85;;;;;;;;;;4861797;29;20037;-92
2022/12/01 13:03:51;;;;;;;41.08;26.23;;;;;;;;;;4866850;29;20530;-89
2022/12/01 13:06:17;;;;;;;38.83;25.08;;;;;;;;;;4869579;29;20123;-91
2022/12/01 13:08:57;;;;;;;39.22;25.98;;;;;;;;;;4876010;29;20427;-91
2022/12/01 13:11:23;;;;;;;41.33;26.27;;;;;;;;;;4869253;29;20394;-91
2022/12/01 13:13:59;;;;;;;40.45;25.30;;;;;;;;;;4866605;29;20131;-92
2022/12/01 13:16:30;;;;;;;42.03;27.42;;;;;;;;;;4866745;29;20026;-91
2022/12/01 13:19:04;;;;;;;38.97;26.42;;;;;;;;;;4866689;29;20029;-90
2022/12/01 13:21:35;;;;;;;42.17;27.02;;;;;;;;;;4881928;29;20073;-91
2022/12/01 13:24:02;;;;;;;39.95;26.25;;;;;;;;;;4881929;29;20029;-91
2022/12/01 13:26:28;;;;;;;42.30;27.58;;;;;;;;;;4882184;29;20033;-91
2022/12/01 13:28:56;;;;;;;40.80;26.55;;;;;;;;;;4882301;29;20044;-92
2022/12/01 13:31:22;;;;;;;38.58;26.33;;;;;;;;;;4882866;29;20167;-92
2022/12/01 13:33:59;;;;;;;40.67;25.75;;;;;;;;;;4881674;29;20041;-91
2022/12/01 13:36:26;;;;;;;37.80;25.33;;;;;;;;;;4882188;29;20108;-92
2022/12/01 13:39:13;;;;;;;36.03;23.80;;;;;;;;;;4881950;29;20049;-93
2022/12/01 13:41:39;;;;;;;37.88;24.75;;;;;;;;;;4854273;29;20033;-92
2022/12/01 13:44:07;;;;;;;36.30;24.20;;;;;;;;;;4882293;29;20029;-93
2022/12/01 13:46:42;;;;;;;37.47;23.95;;;;;;;;;;4881603;29;20053;-92
2022/12/01 13:49:28;;;;;;;42.17;24.52;;;;;;;;;;4886657;29;20034;-91
2022/12/01 13:52:13;;;;;;;41.75;25.33;;;;;;;;;;4882654;29;20032;-91
2022/12/01 13:54:58;;;;;;;39.03;24.52;;;;;;;;;;4881790;29;20093;-91
2022/12/01 13:57:29;;;;;;;39.80;24.02;;;;;;;;;;4881550;29;20473;-91
2022/12/01 13:59:58;;;;;;;39.67;23.95;;;;;;;;;;4882917;29;20029;-92
2022/12/01 14:02:26;;;;;;;39.53;24.20;;;;;;;;;;4881323;29;20025;-91
2022/12/01 14:04:52;;;;;;;38.60;22.42;;;;;;;;;;4880447;29;20036;-92
2022/12/01 14:07:18;;;;;;;38.75;23.60;;;;;;;;;;4881129;29;20041;-92
2022/12/01 14:09:44;;;;;;;37.08;21.80;;;;;;;;;;4882051;29;20120;-91
2022/12/01 14:12:10;;;;;;;36.35;22.48;;;;;;;;;;4881613;29;20041;-92
2022/12/01 14:14:42;;;;;;;37.85;22.27;;;;;;;;;;4882113;29;20040;-96
2022/12/01 14:17:45;;;;;;;39.00;22.05;;;;;;;;;;4885285;29;20036;-96
2022/12/01 14:20:14;;;;;;;36.15;21.10;;;;;;;;;;4828539;29;20038;-92
2022/12/01 14:22:42;;;;;;;36.53;21.90;;;;;;;;;;4871311;29;20029;-92
2022/12/01 14:25:21;;;;;;;36.90;22.02;;;;;;;;;;4882580;29;20394;-91
2022/12/01 14:27:58;;;;;;;35.92;21.35;;;;;;;;;;4882402;29;20050;-89
2022/12/01 14:30:45;;;;;;;37.10;21.95;;;;;;;;;;4881565;29;20117;-93
2022/12/01 14:33:33;;;;;;;38.22;22.35;;;;;;;;;;4881615;29;20037;-93
2022/12/01 14:39:21;;;;;;;37.55;22.77;;;;;;;;;;4883736;29;20025;-94